createdAt,value
2019-05-20T00:00:50.924Z,15.10
2019-05-20T00:03:19.654Z,13.57
2019-05-20T00:05:48.541Z,15.47
2019-05-20T00:08:17.365Z,14.57
2019-05-20T00:10:46.144Z,15.17
2019-05-20T00:13:14.859Z,15.23
2019-05-20T00:15:43.652Z,14.37
2019-05-20T00:18:12.421Z,15.30
2019-05-20T00:20:41.219Z,15.30
2019-05-20T00:23:09.945Z,14.43
2019-05-20T00:25:38.764Z,16.00
2019-05-20T00:28:07.504Z,17.53
2019-05-20T00:30:36.334Z,17.57
2019-05-20T00:33:05.367Z,18.17
2019-05-20T00:35:34.226Z,16.40
2019-05-20T00:38:02.957Z,18.43
2019-05-20T00:40:31.688Z,18.93
2019-05-20T00:43:00.431Z,17.13
2019-05-20T00:45:29.246Z,18.27
2019-05-20T00:47:57.967Z,18.17
2019-05-20T00:50:26.712Z,19.43
2019-05-20T00:52:55.530Z,19.20
2019-05-20T00:55:26.126Z,17.87
2019-05-20T00:57:54.936Z,17.43
2019-05-20T01:00:24.216Z,19.10
2019-05-20T01:02:57.021Z,18.73
2019-05-20T01:05:23.527Z,17.93
2019-05-20T01:07:52.278Z,16.33
2019-05-20T01:10:21.193Z,16.97
2019-05-20T01:12:50.010Z,17.97
2019-05-20T01:15:19.185Z,17.93
2019-05-20T01:17:47.934Z,18.57
2019-05-20T01:20:17.273Z,17.13
2019-05-20T01:22:46.028Z,17.83
2019-05-20T01:25:14.884Z,18.20
2019-05-20T01:27:43.622Z,17.13
2019-05-20T01:30:13.107Z,17.30
2019-05-20T01:32:42.227Z,17.93
2019-05-20T01:35:12.713Z,17.97
2019-05-20T01:37:41.688Z,18.17
2019-05-20T01:40:10.768Z,18.30
2019-05-20T01:42:39.584Z,17.20
2019-05-20T01:45:08.845Z,17.43
2019-05-20T01:47:37.635Z,16.90
2019-05-20T01:50:06.686Z,17.27
2019-05-20T01:52:35.462Z,16.93
2019-05-20T01:55:04.621Z,17.73
2019-05-20T01:57:33.398Z,17.17
2019-05-20T02:00:02.134Z,16.47
2019-05-20T02:02:31.201Z,19.37
2019-05-20T02:05:00.032Z,18.83
2019-05-20T02:07:28.803Z,18.27
2019-05-20T02:09:57.799Z,18.13
2019-05-20T02:12:26.538Z,18.47
2019-05-20T02:15:01.063Z,17.47
2019-05-20T02:17:29.839Z,18.83
2019-05-20T02:19:58.580Z,18.77
2019-05-20T02:22:27.360Z,17.70
2019-05-20T02:24:56.131Z,18.30
2019-05-20T02:27:24.943Z,18.10
2019-05-20T02:29:53.698Z,19.20
2019-05-20T02:32:22.420Z,18.63
2019-05-20T02:34:51.190Z,18.80
2019-05-20T02:37:20.013Z,18.73
2019-05-20T02:39:48.757Z,20.37
2019-05-20T02:42:17.655Z,20.23
2019-05-20T02:44:46.471Z,22.30
2019-05-20T02:47:15.199Z,22.17
2019-05-20T02:49:44.026Z,22.07
2019-05-20T02:52:12.757Z,23.03
2019-05-20T02:54:41.777Z,20.50
2019-05-20T02:57:10.569Z,20.00
2019-05-20T02:59:39.576Z,20.70
2019-05-20T03:02:08.311Z,21.03
2019-05-20T03:04:37.495Z,21.90
2019-05-20T03:07:06.453Z,19.70
2019-05-20T03:09:35.361Z,20.20
2019-05-20T03:12:04.173Z,20.87
2019-05-20T03:14:32.915Z,20.90
2019-05-20T03:17:01.700Z,20.63
2019-05-20T03:19:30.478Z,20.53
2019-05-20T03:21:59.191Z,20.27
2019-05-20T03:24:27.943Z,20.77
2019-05-20T03:26:56.674Z,19.33
2019-05-20T03:29:25.561Z,19.70
2019-05-20T03:31:54.507Z,20.30
2019-05-20T03:34:43.542Z,19.13
2019-05-20T03:36:53.723Z,19.90
2019-05-20T03:39:22.619Z,19.63
2019-05-20T03:41:51.454Z,19.33
2019-05-20T03:44:20.209Z,20.43
2019-05-20T03:46:49.218Z,19.83
2019-05-20T03:49:18.073Z,20.13
2019-05-20T03:51:46.833Z,18.73
2019-05-20T03:54:15.651Z,18.47
2019-05-20T03:56:44.394Z,18.63
2019-05-20T03:59:13.198Z,19.00
2019-05-20T04:01:41.970Z,18.40
2019-05-20T04:04:10.713Z,19.73
2019-05-20T04:06:39.451Z,18.77
2019-05-20T04:09:08.367Z,19.70
2019-05-20T04:11:37.302Z,18.90
2019-05-20T04:14:06.115Z,18.50
2019-05-20T04:16:34.971Z,18.90
2019-05-20T04:19:04.009Z,18.67
2019-05-20T04:21:32.793Z,18.53
2019-05-20T04:24:02.210Z,19.60
2019-05-20T04:26:31.137Z,19.37
2019-05-20T04:28:59.866Z,19.13
2019-05-20T04:31:28.607Z,18.73
2019-05-20T04:33:57.479Z,19.03
2019-05-20T04:36:26.312Z,19.20
2019-05-20T04:38:58.001Z,18.37
2019-05-20T04:41:26.788Z,19.33
2019-05-20T04:43:55.526Z,19.30
2019-05-20T04:46:24.439Z,20.53
2019-05-20T04:48:53.157Z,19.37
2019-05-20T04:51:21.898Z,20.27
2019-05-20T04:53:50.655Z,19.60
2019-05-20T04:56:19.531Z,19.43
2019-05-20T04:58:48.327Z,19.00
2019-05-20T05:01:17.133Z,18.57
2019-05-20T05:03:45.857Z,19.23
2019-05-20T05:06:14.919Z,18.17
2019-05-20T05:08:43.784Z,17.07
2019-05-20T05:11:12.783Z,17.57
2019-05-20T05:13:41.655Z,19.07
2019-05-20T05:16:10.573Z,17.67
2019-05-20T05:18:39.381Z,17.20
2019-05-20T05:21:08.300Z,17.33
2019-05-20T05:23:37.189Z,16.80
2019-05-20T05:26:06.427Z,16.90
2019-05-20T05:28:35.403Z,17.23
2019-05-20T05:31:04.161Z,17.13
2019-05-20T05:33:33.473Z,17.50
2019-05-20T05:36:02.222Z,18.03
2019-05-20T05:38:31.027Z,17.63
2019-05-20T05:40:59.785Z,17.73
2019-05-20T05:43:28.663Z,18.70
2019-05-20T05:45:57.758Z,18.07
2019-05-20T05:48:26.496Z,17.93
2019-05-20T05:50:55.245Z,18.07
2019-05-20T05:53:23.961Z,18.77
2019-05-20T05:55:52.808Z,18.87
2019-05-20T05:58:21.527Z,18.47
2019-05-20T06:00:50.272Z,18.07
2019-05-20T06:03:19.068Z,19.37
2019-05-20T06:05:47.901Z,18.73
2019-05-20T06:08:16.638Z,18.97
2019-05-20T06:10:45.377Z,19.43
2019-05-20T06:13:14.247Z,18.37
2019-05-20T06:15:42.974Z,19.40
2019-05-20T06:18:11.724Z,19.20
2019-05-20T06:20:40.661Z,19.50
2019-05-20T06:23:09.517Z,19.97
2019-05-20T06:25:38.213Z,20.17
2019-05-20T06:28:06.954Z,21.17
2019-05-20T06:30:38.910Z,20.20
2019-05-20T06:33:07.743Z,21.07
2019-05-20T06:35:36.962Z,20.33
2019-05-20T06:38:09.315Z,20.90
2019-05-20T06:40:38.286Z,20.87
2019-05-20T06:43:07.183Z,20.83
2019-05-20T06:45:35.926Z,21.30
2019-05-20T06:48:04.862Z,21.23
2019-05-20T06:50:33.736Z,21.13
2019-05-20T06:53:02.625Z,21.23
2019-05-20T06:55:31.485Z,21.33
2019-05-20T06:58:00.370Z,20.80
2019-05-20T07:00:37.117Z,22.10
2019-05-20T07:03:06.202Z,22.10
2019-05-20T07:05:35.210Z,21.00
2019-05-20T07:08:04.116Z,21.30
2019-05-20T07:10:33.447Z,21.70
2019-05-20T07:13:02.335Z,22.40
2019-05-20T07:15:31.106Z,21.13
2019-05-20T07:18:00.165Z,21.13
2019-05-20T07:20:28.972Z,22.87
2019-05-20T07:22:57.749Z,20.67
2019-05-20T07:25:26.555Z,21.30
2019-05-20T07:27:55.324Z,21.27
2019-05-20T07:30:24.138Z,20.87
2019-05-20T07:32:52.967Z,21.37
2019-05-20T07:35:30.057Z,20.87
2019-05-20T07:37:52.196Z,21.07
2019-05-20T07:40:31.139Z,22.00
2019-05-20T07:42:59.964Z,21.37
2019-05-20T07:45:30.710Z,21.13
2019-05-20T07:47:59.752Z,20.53
2019-05-20T07:50:29.424Z,21.83
2019-05-20T07:53:00.534Z,20.87
2019-05-20T07:55:32.861Z,21.10
2019-05-20T07:58:05.901Z,21.33
2019-05-20T08:00:34.902Z,21.77
2019-05-20T08:03:04.398Z,21.60
2019-05-20T08:05:33.279Z,19.90
2019-05-20T08:08:02.081Z,20.12
2019-05-20T08:10:30.934Z,20.10
2019-05-20T08:13:00.105Z,20.48
2019-05-20T08:15:28.948Z,18.30
2019-05-20T08:17:57.773Z,20.47
2019-05-20T08:20:26.663Z,17.20
2019-05-20T08:22:55.494Z,20.85
2019-05-20T08:25:24.236Z,19.60
2019-05-20T08:27:53.124Z,18.42
2019-05-20T08:30:32.123Z,18.17
2019-05-20T08:33:01.166Z,17.62
2019-05-20T08:35:29.906Z,17.82
2019-05-20T08:37:58.819Z,18.62
2019-05-20T08:40:27.666Z,18.75
2019-05-20T08:42:56.391Z,17.75
2019-05-20T08:45:25.435Z,18.37
2019-05-20T08:47:54.228Z,18.17
2019-05-20T08:50:23.027Z,19.92
2019-05-20T08:52:51.894Z,20.25
2019-05-20T08:55:21.147Z,20.20
2019-05-20T08:57:50.110Z,20.43
2019-05-20T09:00:23.428Z,21.93
2019-05-20T09:02:51.890Z,21.65
2019-05-20T09:05:20.860Z,21.33
2019-05-20T09:08:02.119Z,22.27
2019-05-20T09:10:21.373Z,22.62
2019-05-20T09:12:50.129Z,21.50
2019-05-20T09:15:19.292Z,21.90
2019-05-20T09:17:48.096Z,22.50
2019-05-20T09:20:17.192Z,21.93
2019-05-20T09:22:45.933Z,19.48
2019-05-20T09:25:15.154Z,19.17
2019-05-20T09:27:43.848Z,19.15
2019-05-20T09:30:13.436Z,20.80
2019-05-20T09:32:43.309Z,22.30
2019-05-20T09:35:12.387Z,22.30
2019-05-20T09:37:41.114Z,22.03
2019-05-20T09:40:10.505Z,20.60
2019-05-20T09:42:40.976Z,21.00
2019-05-20T09:45:10.130Z,20.02
2019-05-20T09:47:38.942Z,20.25
2019-05-20T09:50:08.106Z,17.27
2019-05-20T09:52:37.016Z,19.17
2019-05-20T09:55:06.065Z,19.42
2019-05-20T09:57:34.879Z,18.98
2019-05-20T10:00:03.828Z,20.15
2019-05-20T10:02:37.825Z,19.35
2019-05-20T10:05:04.091Z,19.98
2019-05-20T10:07:32.892Z,20.27
2019-05-20T10:10:01.759Z,20.02
2019-05-20T10:12:45.262Z,20.30
2019-05-20T10:15:01.077Z,21.45
2019-05-20T10:17:29.850Z,19.50
2019-05-20T10:19:59.386Z,18.95
2019-05-20T10:22:28.193Z,19.00
2019-05-20T10:24:56.903Z,19.80
2019-05-20T10:27:25.913Z,20.43
2019-05-20T10:29:54.656Z,19.82
2019-05-20T10:32:23.515Z,20.68
2019-05-20T10:34:52.643Z,19.45
2019-05-20T10:37:21.429Z,21.52
2019-05-20T10:39:50.161Z,20.08
2019-05-20T10:42:19.117Z,19.95
2019-05-20T10:44:47.816Z,19.95
2019-05-20T10:47:16.548Z,19.23
2019-05-20T10:49:45.266Z,19.27
2019-05-20T10:52:14.023Z,19.85
2019-05-20T10:54:42.752Z,18.75
2019-05-20T10:57:11.508Z,18.50
2019-05-20T10:59:40.309Z,18.50
2019-05-20T11:02:09.132Z,19.02
2019-05-20T11:04:37.917Z,20.65
2019-05-20T11:07:06.647Z,20.60
2019-05-20T11:09:35.408Z,20.23
2019-05-20T11:12:04.213Z,20.25
2019-05-20T11:14:32.975Z,19.82
2019-05-20T11:17:01.982Z,20.52
2019-05-20T11:19:30.716Z,21.27
2019-05-20T11:21:59.505Z,21.52
2019-05-20T11:24:28.244Z,21.27
2019-05-20T11:26:57.099Z,21.87
2019-05-20T11:29:25.832Z,21.65
2019-05-20T11:31:54.646Z,21.68
2019-05-20T11:34:23.446Z,20.80
2019-05-20T11:36:52.350Z,21.10
2019-05-20T11:39:32.580Z,20.80
2019-05-20T11:41:53.762Z,21.35
2019-05-20T11:44:22.203Z,20.43
2019-05-20T11:46:51.027Z,21.85
2019-05-20T11:49:19.742Z,20.50
2019-05-20T11:51:48.556Z,21.87
2019-05-20T11:54:17.297Z,20.80
2019-05-20T11:56:46.100Z,20.05
2019-05-20T11:59:14.825Z,20.72
2019-05-20T12:01:43.830Z,22.22
2019-05-20T12:04:12.560Z,20.05
2019-05-20T12:06:41.562Z,19.90
2019-05-20T12:09:10.357Z,20.05
2019-05-20T12:11:39.093Z,20.97
2019-05-20T12:14:07.891Z,19.95
2019-05-20T12:16:36.671Z,19.05
2019-05-20T12:19:05.485Z,20.52
2019-05-20T12:21:34.230Z,21.57
2019-05-20T12:24:03.096Z,22.05
2019-05-20T12:26:31.848Z,22.48
2019-05-20T12:29:00.587Z,25.08
2019-05-20T12:31:29.314Z,24.18
2019-05-20T12:33:58.174Z,26.12
2019-05-20T12:36:26.904Z,26.97
2019-05-20T12:38:55.656Z,26.27
2019-05-20T12:41:24.415Z,25.23
2019-05-20T12:44:10.106Z,26.12
2019-05-20T12:46:23.851Z,25.55
2019-05-20T12:48:52.700Z,26.17
2019-05-20T12:51:21.483Z,24.82
2019-05-20T12:53:50.241Z,24.72
2019-05-20T12:56:19.890Z,26.95
2019-05-20T12:58:48.721Z,24.85
2019-05-20T13:01:17.454Z,24.92
2019-05-20T13:03:46.204Z,24.77
2019-05-20T13:06:14.994Z,22.95
2019-05-20T13:08:43.865Z,24.40
2019-05-20T13:11:12.585Z,23.95
2019-05-20T13:13:41.400Z,23.85
2019-05-20T13:16:10.233Z,25.15
2019-05-20T13:18:54.648Z,22.40
2019-05-20T13:21:10.034Z,19.37
2019-05-20T13:23:38.782Z,24.05
2019-05-20T13:26:07.536Z,23.30
2019-05-20T13:28:36.311Z,18.62
2019-05-20T13:31:05.110Z,15.08
2019-05-20T13:33:33.843Z,15.72
2019-05-20T13:36:02.657Z,18.57
2019-05-20T13:38:31.409Z,17.85
2019-05-20T13:41:00.147Z,19.32
2019-05-20T13:43:28.931Z,21.85
2019-05-20T13:45:57.655Z,22.52
2019-05-20T13:48:26.495Z,23.87
2019-05-20T13:50:55.213Z,24.20
2019-05-20T13:53:24.054Z,24.98
2019-05-20T13:55:52.789Z,23.42
2019-05-20T13:58:21.519Z,23.73
2019-05-20T14:00:50.272Z,23.60
2019-05-20T14:03:19.427Z,26.42
2019-05-20T14:05:48.162Z,26.27
2019-05-20T14:08:16.889Z,25.45
2019-05-20T14:11:01.293Z,25.50
2019-05-20T14:13:16.126Z,24.10
2019-05-20T14:15:44.873Z,26.05
2019-05-20T14:18:13.605Z,25.40
2019-05-20T14:20:42.452Z,25.75
2019-05-20T14:23:12.939Z,26.68
2019-05-20T14:25:42.590Z,27.17
2019-05-20T14:28:11.574Z,26.57
2019-05-20T14:30:40.542Z,25.05
2019-05-20T14:33:09.417Z,26.07
2019-05-20T14:35:45.124Z,25.50
2019-05-20T14:38:25.989Z,26.60
2019-05-20T14:41:00.982Z,25.25
2019-05-20T14:43:35.983Z,26.65
2019-05-20T14:46:00.423Z,26.27
2019-05-20T14:48:29.343Z,26.87
2019-05-20T14:51:08.493Z,27.13
2019-05-20T14:53:37.420Z,26.05
2019-05-20T14:56:06.442Z,25.75
2019-05-20T14:58:35.291Z,24.65
2019-05-20T15:01:18.374Z,25.02
2019-05-20T15:03:47.244Z,25.75
2019-05-20T15:06:16.424Z,24.55
2019-05-20T15:08:45.271Z,24.60
2019-05-20T15:11:15.401Z,25.10
2019-05-20T15:13:44.247Z,25.20
2019-05-20T15:16:13.341Z,24.57
2019-05-20T15:18:42.541Z,25.05
2019-05-20T15:21:11.498Z,24.75
2019-05-20T15:23:49.338Z,24.27
2019-05-20T15:26:33.237Z,24.60
2019-05-20T15:29:03.239Z,24.43
2019-05-20T15:31:49.776Z,25.48
2019-05-20T15:34:25.150Z,19.42
2019-05-20T15:36:54.602Z,18.00
2019-05-20T15:39:23.828Z,16.30
2019-05-20T15:41:59.796Z,16.57
2019-05-20T15:44:28.652Z,16.17
2019-05-20T15:46:57.403Z,15.88
2019-05-20T15:49:26.530Z,14.10
2019-05-20T15:51:55.372Z,15.30
2019-05-20T15:54:25.633Z,14.33
2019-05-20T15:56:55.908Z,14.20
2019-05-20T15:59:25.065Z,12.80
2019-05-20T16:02:06.675Z,12.93
2019-05-20T16:04:35.563Z,11.80
2019-05-20T16:07:07.911Z,10.60
2019-05-20T16:09:36.938Z,10.67
2019-05-20T16:12:06.014Z,11.93
2019-05-20T16:14:35.097Z,12.10
2019-05-20T16:17:04.072Z,11.90
2019-05-20T16:19:32.890Z,10.37
2019-05-20T16:22:01.880Z,11.57
2019-05-20T16:24:38.400Z,11.00
2019-05-20T16:27:10.265Z,11.83
2019-05-20T16:29:41.696Z,12.00
2019-05-20T16:32:13.893Z,12.77
2019-05-20T16:34:50.431Z,12.87
2019-05-20T16:37:21.304Z,14.23
2019-05-20T16:39:56.699Z,12.97
2019-05-20T16:42:25.641Z,12.80
2019-05-20T16:44:54.629Z,15.30
2019-05-20T16:48:03.749Z,15.87
2019-05-20T16:50:37.860Z,15.57
2019-05-20T16:53:00.114Z,12.90
2019-05-20T17:01:16.649Z,9.60
2019-05-20T17:03:45.807Z,7.83
2019-05-20T17:06:14.893Z,8.07
2019-05-20T17:08:43.890Z,9.00
2019-05-20T17:11:12.779Z,8.33
2019-05-20T17:13:41.678Z,8.13
2019-05-20T17:16:12.063Z,8.97
2019-05-20T17:18:56.037Z,9.23
2019-05-20T17:21:16.050Z,7.93
2019-05-20T17:23:59.063Z,8.50
2019-05-20T17:26:28.236Z,7.37
2019-05-20T17:29:01.201Z,7.60
2019-05-20T17:31:30.907Z,7.53
2019-05-20T17:34:00.056Z,8.13
2019-05-20T17:36:44.545Z,7.43
2019-05-20T17:39:24.873Z,7.07
2019-05-20T17:41:53.953Z,6.13
2019-05-20T17:44:22.801Z,7.10
2019-05-20T17:46:51.709Z,7.67
2019-05-20T17:49:20.422Z,7.20
2019-05-20T17:51:49.320Z,7.97
2019-05-20T17:54:18.599Z,7.00
2019-05-20T17:56:47.494Z,7.13
2019-05-20T17:59:16.592Z,6.80
2019-05-20T18:01:45.492Z,7.00
2019-05-20T18:04:14.295Z,7.23
2019-05-20T18:06:42.998Z,6.67
2019-05-20T18:09:42.337Z,6.73
2019-05-20T18:12:40.298Z,7.53
2019-05-20T18:15:08.219Z,7.60
2019-05-20T18:18:17.297Z,7.27
2019-05-20T18:20:46.144Z,7.40
2019-05-20T18:23:15.081Z,7.53
2019-05-20T18:26:11.632Z,7.63
2019-05-20T18:29:07.003Z,7.70
2019-05-20T18:31:35.832Z,7.13
2019-05-20T18:34:04.750Z,7.70
2019-05-20T18:36:43.817Z,7.33
2019-05-20T18:39:12.683Z,7.23
2019-05-20T18:41:41.518Z,8.13
2019-05-20T18:44:13.202Z,8.10
2019-05-20T18:46:40.759Z,8.40
2019-05-20T18:49:09.552Z,9.10
2019-05-20T18:51:38.318Z,8.30
2019-05-20T18:54:07.128Z,8.10
2019-05-20T18:56:35.891Z,8.10
2019-05-20T18:59:05.083Z,8.33
2019-05-20T19:01:46.082Z,8.67
2019-05-20T19:04:04.369Z,9.00
2019-05-20T19:06:33.139Z,9.10
2019-05-20T19:09:01.924Z,9.40
2019-05-20T19:11:30.828Z,11.23
2019-05-20T19:14:00.412Z,12.40
2019-05-20T19:16:29.232Z,9.50
2019-05-20T19:19:04.585Z,9.43
2019-05-20T19:21:33.312Z,9.30
2019-05-20T19:24:02.173Z,10.10
2019-05-20T19:26:31.055Z,9.30
2019-05-20T19:28:59.928Z,9.77
2019-05-20T19:31:28.681Z,10.27
2019-05-20T19:33:57.503Z,11.33
2019-05-20T19:36:26.279Z,10.80
2019-05-20T19:38:55.043Z,10.90
2019-05-20T19:41:23.941Z,10.83
2019-05-20T19:43:52.767Z,12.07
2019-05-20T19:46:21.605Z,11.30
2019-05-20T19:48:50.371Z,11.50
2019-05-20T19:51:19.311Z,11.27
2019-05-20T19:53:48.033Z,10.77
2019-05-20T19:56:16.847Z,11.93
2019-05-20T19:58:45.588Z,10.30
2019-05-20T20:01:14.352Z,7.90
2019-05-20T20:03:43.069Z,7.87
2019-05-20T20:06:11.985Z,6.77
2019-05-20T20:08:40.801Z,6.60
2019-05-20T20:11:09.707Z,6.37
2019-05-20T20:13:38.388Z,6.20
2019-05-20T20:16:07.309Z,6.00
2019-05-20T20:18:36.090Z,5.30
2019-05-20T20:21:04.941Z,5.70
2019-05-20T20:23:33.734Z,4.70
2019-05-20T20:26:02.749Z,4.40
2019-05-20T20:28:31.444Z,4.77
2019-05-20T20:31:00.204Z,4.20
2019-05-20T20:33:28.957Z,4.13
2019-05-20T20:35:57.720Z,4.03
2019-05-20T20:38:26.494Z,3.83
2019-05-20T20:40:55.243Z,3.83
2019-05-20T20:43:23.959Z,3.90
2019-05-20T20:45:52.722Z,4.37
2019-05-20T20:48:29.569Z,4.50
2019-05-20T20:50:58.289Z,4.40
2019-05-20T20:53:27.117Z,4.17
2019-05-20T20:55:55.957Z,4.27
2019-05-20T20:58:24.677Z,4.80
2019-05-20T21:00:53.541Z,4.67
2019-05-20T21:03:22.272Z,4.97
2019-05-20T21:05:51.037Z,4.60
2019-05-20T21:08:19.937Z,4.23
2019-05-20T21:10:48.745Z,4.30
2019-05-20T21:13:17.456Z,3.50
2019-05-20T21:15:48.086Z,3.40
2019-05-20T21:18:16.804Z,3.30
2019-05-20T21:20:45.635Z,3.33
2019-05-20T21:23:14.420Z,3.87
2019-05-20T21:25:43.225Z,4.00
2019-05-20T21:28:11.975Z,4.20
2019-05-20T21:30:40.808Z,4.70
2019-05-20T21:33:09.926Z,4.30
2019-05-20T21:35:38.813Z,4.97
2019-05-20T21:38:07.601Z,4.33
2019-05-20T21:40:36.419Z,5.00
2019-05-20T21:43:05.815Z,5.20
2019-05-20T21:45:34.601Z,5.80
2019-05-20T21:48:03.304Z,5.97
2019-05-20T21:50:32.206Z,6.67
2019-05-20T21:53:00.918Z,6.70
2019-05-20T21:55:29.655Z,6.43
2019-05-20T21:57:58.428Z,6.60
2019-05-20T22:00:33.685Z,6.97
2019-05-20T22:03:02.465Z,6.93
2019-05-20T22:05:31.163Z,6.37
2019-05-20T22:07:59.949Z,6.53
2019-05-20T22:10:28.776Z,6.30
2019-05-20T22:12:57.530Z,6.23
2019-05-20T22:15:26.365Z,6.00
2019-05-20T22:17:55.260Z,5.73
2019-05-20T22:20:23.996Z,6.07
2019-05-20T22:23:10.533Z,6.07
2019-05-20T22:25:39.265Z,6.43
2019-05-20T22:28:08.097Z,5.73
2019-05-20T22:30:36.821Z,6.03
2019-05-20T22:33:05.593Z,5.83
2019-05-20T22:35:34.371Z,6.13
2019-05-20T22:38:03.082Z,5.93
2019-05-20T22:40:31.975Z,4.23
2019-05-20T22:43:02.789Z,3.90
2019-05-20T22:45:31.745Z,3.73
2019-05-20T22:48:00.558Z,3.50
2019-05-20T22:50:29.382Z,3.40
2019-05-20T22:52:58.424Z,3.93
2019-05-20T22:55:27.159Z,4.53
2019-05-20T22:57:55.890Z,4.70
2019-05-20T23:00:24.761Z,4.43
2019-05-20T23:02:53.601Z,4.73
2019-05-20T23:05:22.303Z,5.07
2019-05-20T23:07:51.089Z,4.90
2019-05-20T23:10:20.021Z,5.50
2019-05-20T23:12:48.848Z,6.00
2019-05-20T23:15:17.601Z,5.63
2019-05-20T23:17:46.349Z,6.17
2019-05-20T23:20:15.074Z,4.97
2019-05-20T23:22:43.841Z,5.60
2019-05-20T23:25:12.652Z,5.33
2019-05-20T23:27:41.393Z,4.80
2019-05-20T23:30:10.654Z,4.80
2019-05-20T23:32:39.427Z,4.73
2019-05-20T23:35:08.620Z,4.33
2019-05-20T23:37:37.446Z,4.40
2019-05-20T23:40:06.445Z,6.87
2019-05-20T23:42:35.176Z,8.23
2019-05-20T23:45:04.335Z,12.67
2019-05-20T23:47:33.079Z,10.93
2019-05-20T23:50:01.850Z,16.60
2019-05-20T23:52:30.712Z,18.77
2019-05-20T23:54:59.438Z,17.60
2019-05-20T23:57:28.184Z,19.00
2019-05-20T23:59:56.927Z,19.63
